Tunkhannock, PA

11:49 PM EST on March 04, 2015 (GMT -0500)
Nittany Lane - Falls Township, PA | Change Station
CLOSE
Current Station
Personal Weather Station
Location: Dalton, PA
Elevation: 1083 ft
Nearby Weather Stations

Elev 1083 ft 41.49 °N, 75.83 °W | Updated 4 seconds ago

Snow
Snow
31.6 °F
Feels Like 32 °F
N
0.0
Wind Variable Wind from NW
Gusts 0.0 mph

Today
High -- | Low -- °F
--% Chance of Precip.
Yesterday
High -- | Low -- °F
Precip. -- in
6:34 AM 5:57 PM
Full, 100% visible
Pressure 29.90 in
Visibility 5.0 miles
Clouds Few 800 ft
Mostly Cloudy 2500 ft
Overcast 3100 ft
Windchill 32 °F
Dew Point 22 °F
Humidity 68%
Rainfall in
Snow Depth Not available.
UV 0 out of 12
Pollen .40 out of 12
Air Quality Not available.
Flu Activity Not available.
SPECI KAVP 050436Z AUTO 23008KT 5SM -RA BR FEW008 BKN025 OVC031 02/00 A2990 RMK AO2 UPB20E22 P0000 T00220000

More Conditions Fewer Conditions

Pressure 29.90 in
Visibility 5.0 miles
Clouds Few 800 ft
Mostly Cloudy 2500 ft
Overcast 3100 ft
Windchill 32 °F
Dew Point 22 °F
Humidity 68%
Rainfall in
Snow Depth Not available.
UV 0 out of 12
Pollen .40 out of 12
Air Quality Not available.
Flu Activity Not available.
SPECI KAVP 050436Z AUTO 23008KT 5SM -RA BR FEW008 BKN025 OVC031 02/00 A2990 RMK AO2 UPB20E22 P0000 T00220000

More Conditions Fewer Conditions

10-Day Weather Forecast

Almanac

Astronomy

Mar. 04, 2015 Rise Set
Actual Time
Civil Twilight
Nautical Twilight
Astronomical Twilight
Moon
Length of Visible Light
Length of Day
Tomorrow will be .
, % of the Moon is Illuminated

Today's Extremes

State Highs State Lows

Community

WunderPhotos

Upload Photos

1,802,677 photos uploaded!

WunderBlogs® & News

Nearby

Air Quality

  Air Quality AQ Index Pollutant
Not available.

Snow Depth

Station Depth Elevation

Earthquake Activity

City Distance Mag. Time & Date
Minimum magnitude displayed is 2.5.

Coastal Water Temperatures

Place Temperature

Nearby Weather Stations